Main page
METAR-TAF:

METAR-TAF

Airports :

Hercílio Luz International Airport

Florianópolis, Santa Catarina, Brazil

latitude: 27-40S, longitude: 048-33W, elevation: 5 m

Current weather observation

The report was made 1 hour and 12 minutes ago, at 12:00 UTC
Wind 4 kt from the North, varying between Northwest and North/Northeast
Temperature 18°C
Humidity 94%
Pressure 1025 hPa
Visibility 10 km or more
Few clouds at a height of 1500 ft
Scattered clouds at a height of 10000 ft

METAR: SBFL 171200Z 35004KT 310V030 9999 FEW015 SCT100 18/17 Q1025

Time: 10:12 (13:12 UTC)

Forecast

The report was made 4 hours and 12 minutes ago, at 09:00 UTC
Forecast valid from 17 at 12 UTC to 18 at 12 UTC
Wind 8 kt from the North/Northwest
Visibility 10 km or more
Few clouds at a height of 3000 ft
Becoming
from 17 at 22 UTC to 17 at 24 UTC
Wind 8 kt from the South/Southwest
Scattered clouds at a height of 2000 ft

TAF: SBFL 170900Z 1712/1812 34008KT 9999 FEW030 TX22/1717Z TN12/1808Z BECMG 1722/1724 20008KT SCT020 RMK PEB

Weather observations and forecasts of more than 4000 airports (METAR and TAF reports).

The available stations are represented by yellow and red dots on the map.

Hover mouse over dot to see the name of the station.

Then click to see weather observations and forecasts.

To change the map : click on the green buttons with a black cross to zoom in, on the green button with a dash to zoom out, or on the green arrows for adjacent maps.


METAR-TAF: